sensor_id;sensor_type;location;lat;lon;timestamp;P1;durP1;ratioP1;P2;durP2;ratioP2
77099;SDS011;66602;48.922;2.414;2023-03-13T00:00:19;3.45;;;2.50;;
77099;SDS011;66602;48.922;2.414;2023-03-13T00:02:45;2.70;;;2.58;;
77099;SDS011;66602;48.922;2.414;2023-03-13T00:05:12;2.38;;;2.22;;
77099;SDS011;66602;48.922;2.414;2023-03-13T00:07:38;2.17;;;2.00;;
77099;SDS011;66602;48.922;2.414;2023-03-13T00:10:04;3.80;;;2.50;;
77099;SDS011;66602;48.922;2.414;2023-03-13T00:12:30;2.20;;;2.10;;
77099;SDS011;66602;48.922;2.414;2023-03-13T00:14:55;2.90;;;2.70;;
77099;SDS011;66602;48.922;2.414;2023-03-13T00:17:25;2.47;;;2.38;;
77099;SDS011;66602;48.922;2.414;2023-03-13T00:19:50;2.35;;;2.13;;
77099;SDS011;66602;48.922;2.414;2023-03-13T00:22:16;2.97;;;2.10;;
77099;SDS011;66602;48.922;2.414;2023-03-13T00:24:44;2.50;;;2.30;;
77099;SDS011;66602;48.922;2.414;2023-03-13T00:27:10;2.50;;;2.00;;
77099;SDS011;66602;48.922;2.414;2023-03-13T00:29:35;2.08;;;1.98;;
77099;SDS011;66602;48.922;2.414;2023-03-13T00:32:01;2.58;;;2.38;;
77099;SDS011;66602;48.922;2.414;2023-03-13T00:34:27;2.47;;;2.38;;
77099;SDS011;66602;48.922;2.414;2023-03-13T00:36:53;2.20;;;2.10;;
77099;SDS011;66602;48.922;2.414;2023-03-13T00:39:20;2.33;;;2.00;;
77099;SDS011;66602;48.922;2.414;2023-03-13T00:41:46;4.22;;;2.13;;
77099;SDS011;66602;48.922;2.414;2023-03-13T00:44:12;2.05;;;1.95;;
77099;SDS011;66602;48.922;2.414;2023-03-13T00:46:38;1.80;;;1.80;;
77099;SDS011;66602;48.922;2.414;2023-03-13T00:49:03;3.13;;;1.65;;
77099;SDS011;66602;48.922;2.414;2023-03-13T00:51:29;2.33;;;2.13;;
77099;SDS011;66602;48.922;2.414;2023-03-13T00:53:55;4.28;;;1.77;;
77099;SDS011;66602;48.922;2.414;2023-03-13T00:56:24;2.25;;;2.15;;
77099;SDS011;66602;48.922;2.414;2023-03-13T00:58:50;1.95;;;1.85;;
77099;SDS011;66602;48.922;2.414;2023-03-13T01:01:17;1.98;;;1.88;;
77099;SDS011;66602;48.922;2.414;2023-03-13T01:03:48;3.22;;;2.13;;
77099;SDS011;66602;48.922;2.414;2023-03-13T01:06:16;2.97;;;2.30;;
77099;SDS011;66602;48.922;2.414;2023-03-13T01:08:43;2.20;;;2.00;;
77099;SDS011;66602;48.922;2.414;2023-03-13T01:11:10;2.10;;;1.90;;
77099;SDS011;66602;48.922;2.414;2023-03-13T01:13:37;5.60;;;2.30;;
77099;SDS011;66602;48.922;2.414;2023-03-13T01:16:03;3.25;;;2.95;;
77099;SDS011;66602;48.922;2.414;2023-03-13T01:18:30;3.53;;;2.45;;
77099;SDS011;66602;48.922;2.414;2023-03-13T01:20:57;2.40;;;2.00;;
77099;SDS011;66602;48.922;2.414;2023-03-13T01:23:22;2.47;;;2.20;;
77099;SDS011;66602;48.922;2.414;2023-03-13T01:25:48;2.20;;;2.10;;
77099;SDS011;66602;48.922;2.414;2023-03-13T01:28:14;2.92;;;2.30;;
77099;SDS011;66602;48.922;2.414;2023-03-13T01:30:39;2.45;;;2.03;;
77099;SDS011;66602;48.922;2.414;2023-03-13T01:33:05;2.75;;;2.17;;
77099;SDS011;66602;48.922;2.414;2023-03-13T01:35:30;3.83;;;2.25;;
77099;SDS011;66602;48.922;2.414;2023-03-13T01:37:56;4.32;;;2.20;;
77099;SDS011;66602;48.922;2.414;2023-03-13T01:40:21;2.45;;;2.20;;
77099;SDS011;66602;48.922;2.414;2023-03-13T01:42:48;8.05;;;2.70;;
77099;SDS011;66602;48.922;2.414;2023-03-13T01:48:25;2.38;;;2.08;;
77099;SDS011;66602;48.922;2.414;2023-03-13T01:50:58;4.97;;;2.60;;
77099;SDS011;66602;48.922;2.414;2023-03-13T01:53:26;4.07;;;2.38;;
77099;SDS011;66602;48.922;2.414;2023-03-13T01:55:54;3.17;;;2.60;;
77099;SDS011;66602;48.922;2.414;2023-03-13T01:58:20;2.70;;;2.50;;
77099;SDS011;66602;48.922;2.414;2023-03-13T02:00:46;6.70;;;2.88;;
77099;SDS011;66602;48.922;2.414;2023-03-13T02:03:13;2.70;;;2.50;;
77099;SDS011;66602;48.922;2.414;2023-03-13T02:05:42;2.83;;;2.40;;
77099;SDS011;66602;48.922;2.414;2023-03-13T02:08:14;3.92;;;2.55;;
77099;SDS011;66602;48.922;2.414;2023-03-13T02:10:49;6.18;;;2.40;;
77099;SDS011;66602;48.922;2.414;2023-03-13T02:13:17;3.88;;;2.75;;
77099;SDS011;66602;48.922;2.414;2023-03-13T02:15:45;5.32;;;2.40;;
77099;SDS011;66602;48.922;2.414;2023-03-13T02:18:11;3.35;;;2.45;;
77099;SDS011;66602;48.922;2.414;2023-03-13T02:20:38;7.35;;;2.65;;
77099;SDS011;66602;48.922;2.414;2023-03-13T02:23:10;4.60;;;2.70;;
77099;SDS011;66602;48.922;2.414;2023-03-13T02:25:52;11.60;;;3.30;;
77099;SDS011;66602;48.922;2.414;2023-03-13T02:28:19;8.48;;;2.38;;
77099;SDS011;66602;48.922;2.414;2023-03-13T02:30:49;5.07;;;2.38;;
77099;SDS011;66602;48.922;2.414;2023-03-13T02:33:17;6.68;;;2.65;;
77099;SDS011;66602;48.922;2.414;2023-03-13T02:35:44;7.53;;;2.65;;
77099;SDS011;66602;48.922;2.414;2023-03-13T02:38:12;3.70;;;2.55;;
77099;SDS011;66602;48.922;2.414;2023-03-13T02:40:43;8.10;;;2.50;;
77099;SDS011;66602;48.922;2.414;2023-03-13T02:43:16;9.95;;;3.08;;
77099;SDS011;66602;48.922;2.414;2023-03-13T02:48:37;6.60;;;2.40;;
77099;SDS011;66602;48.922;2.414;2023-03-13T02:51:16;3.45;;;2.40;;
77099;SDS011;66602;48.922;2.414;2023-03-13T02:53:48;7.80;;;2.72;;
77099;SDS011;66602;48.922;2.414;2023-03-13T02:56:16;2.58;;;2.20;;
77099;SDS011;66602;48.922;2.414;2023-03-13T02:58:44;17.83;;;2.80;;
77099;SDS011;66602;48.922;2.414;2023-03-13T03:01:09;2.80;;;2.47;;
77099;SDS011;66602;48.922;2.414;2023-03-13T03:03:35;8.88;;;2.40;;
77099;SDS011;66602;48.922;2.414;2023-03-13T03:06:01;4.88;;;2.42;;
77099;SDS011;66602;48.922;2.414;2023-03-13T03:08:28;3.90;;;2.00;;
77099;SDS011;66602;48.922;2.414;2023-03-13T03:10:54;8.60;;;2.53;;
77099;SDS011;66602;48.922;2.414;2023-03-13T03:13:20;5.53;;;2.38;;
77099;SDS011;66602;48.922;2.414;2023-03-13T03:15:45;5.68;;;2.60;;
77099;SDS011;66602;48.922;2.414;2023-03-13T03:18:11;5.15;;;2.65;;
77099;SDS011;66602;48.922;2.414;2023-03-13T03:20:36;9.52;;;2.67;;
77099;SDS011;66602;48.922;2.414;2023-03-13T03:23:02;3.00;;;2.70;;
77099;SDS011;66602;48.922;2.414;2023-03-13T03:25:27;6.18;;;2.70;;
77099;SDS011;66602;48.922;2.414;2023-03-13T03:27:53;8.20;;;2.72;;
77099;SDS011;66602;48.922;2.414;2023-03-13T03:30:18;2.53;;;2.28;;
77099;SDS011;66602;48.922;2.414;2023-03-13T03:32:44;4.75;;;2.60;;
77099;SDS011;66602;48.922;2.414;2023-03-13T03:35:09;4.90;;;3.35;;
77099;SDS011;66602;48.922;2.414;2023-03-13T03:37:35;3.63;;;2.40;;
77099;SDS011;66602;48.922;2.414;2023-03-13T03:40:00;5.85;;;2.20;;
77099;SDS011;66602;48.922;2.414;2023-03-13T03:42:26;6.82;;;2.67;;
77099;SDS011;66602;48.922;2.414;2023-03-13T03:44:51;4.68;;;2.30;;
77099;SDS011;66602;48.922;2.414;2023-03-13T03:47:17;3.60;;;2.47;;
77099;SDS011;66602;48.922;2.414;2023-03-13T03:49:42;5.03;;;2.95;;
77099;SDS011;66602;48.922;2.414;2023-03-13T03:52:07;6.13;;;3.58;;
77099;SDS011;66602;48.922;2.414;2023-03-13T03:54:33;4.55;;;3.25;;
77099;SDS011;66602;48.922;2.414;2023-03-13T03:56:59;6.40;;;2.90;;
77099;SDS011;66602;48.922;2.414;2023-03-13T03:59:25;3.70;;;2.33;;
77099;SDS011;66602;48.922;2.414;2023-03-13T04:01:50;4.45;;;2.60;;
77099;SDS011;66602;48.922;2.414;2023-03-13T04:04:16;6.38;;;2.58;;
77099;SDS011;66602;48.922;2.414;2023-03-13T04:06:41;4.10;;;2.65;;
77099;SDS011;66602;48.922;2.414;2023-03-13T04:09:07;4.85;;;2.47;;
77099;SDS011;66602;48.922;2.414;2023-03-13T04:11:32;4.63;;;2.50;;
77099;SDS011;66602;48.922;2.414;2023-03-13T04:13:57;8.05;;;2.90;;
77099;SDS011;66602;48.922;2.414;2023-03-13T04:16:23;6.45;;;2.63;;
77099;SDS011;66602;48.922;2.414;2023-03-13T04:18:48;14.75;;;2.47;;
77099;SDS011;66602;48.922;2.414;2023-03-13T04:21:14;11.05;;;4.05;;
77099;SDS011;66602;48.922;2.414;2023-03-13T04:23:39;8.93;;;2.83;;
77099;SDS011;66602;48.922;2.414;2023-03-13T04:26:05;6.25;;;2.33;;
77099;SDS011;66602;48.922;2.414;2023-03-13T04:28:30;6.35;;;2.45;;
77099;SDS011;66602;48.922;2.414;2023-03-13T04:30:56;5.28;;;2.88;;
77099;SDS011;66602;48.922;2.414;2023-03-13T04:33:23;5.05;;;2.50;;
77099;SDS011;66602;48.922;2.414;2023-03-13T04:35:49;4.22;;;2.50;;
77099;SDS011;66602;48.922;2.414;2023-03-13T04:38:14;11.38;;;2.80;;
77099;SDS011;66602;48.922;2.414;2023-03-13T04:40:39;4.40;;;2.60;;
77099;SDS011;66602;48.922;2.414;2023-03-13T04:43:07;8.25;;;3.22;;
77099;SDS011;66602;48.922;2.414;2023-03-13T04:45:33;5.00;;;2.95;;
77099;SDS011;66602;48.922;2.414;2023-03-13T04:47:58;8.18;;;3.28;;
77099;SDS011;66602;48.922;2.414;2023-03-13T04:50:23;5.68;;;3.00;;
77099;SDS011;66602;48.922;2.414;2023-03-13T04:52:49;6.00;;;2.45;;
77099;SDS011;66602;48.922;2.414;2023-03-13T04:55:14;6.57;;;2.85;;
77099;SDS011;66602;48.922;2.414;2023-03-13T04:57:40;3.22;;;2.92;;
77099;SDS011;66602;48.922;2.414;2023-03-13T05:00:06;7.80;;;2.90;;
77099;SDS011;66602;48.922;2.414;2023-03-13T05:02:32;2.97;;;2.65;;
77099;SDS011;66602;48.922;2.414;2023-03-13T05:04:58;4.43;;;3.20;;
77099;SDS011;66602;48.922;2.414;2023-03-13T05:07:23;6.15;;;2.92;;
77099;SDS011;66602;48.922;2.414;2023-03-13T05:09:49;3.65;;;2.35;;
77099;SDS011;66602;48.922;2.414;2023-03-13T05:12:14;5.93;;;2.63;;
77099;SDS011;66602;48.922;2.414;2023-03-13T05:14:40;10.82;;;2.85;;
77099;SDS011;66602;48.922;2.414;2023-03-13T05:17:05;7.03;;;2.92;;
77099;SDS011;66602;48.922;2.414;2023-03-13T05:19:31;9.02;;;3.80;;
77099;SDS011;66602;48.922;2.414;2023-03-13T05:21:56;7.53;;;3.15;;
77099;SDS011;66602;48.922;2.414;2023-03-13T05:24:22;8.60;;;3.20;;
77099;SDS011;66602;48.922;2.414;2023-03-13T05:26:47;7.70;;;2.97;;
77099;SDS011;66602;48.922;2.414;2023-03-13T05:29:13;6.72;;;2.97;;
77099;SDS011;66602;48.922;2.414;2023-03-13T05:31:38;7.65;;;3.00;;
77099;SDS011;66602;48.922;2.414;2023-03-13T05:34:03;4.57;;;2.70;;
77099;SDS011;66602;48.922;2.414;2023-03-13T05:36:29;6.85;;;2.97;;
77099;SDS011;66602;48.922;2.414;2023-03-13T05:38:54;7.13;;;3.20;;
77099;SDS011;66602;48.922;2.414;2023-03-13T05:41:20;3.10;;;2.70;;
77099;SDS011;66602;48.922;2.414;2023-03-13T05:43:45;7.95;;;3.55;;
77099;SDS011;66602;48.922;2.414;2023-03-13T05:46:11;4.95;;;3.03;;
77099;SDS011;66602;48.922;2.414;2023-03-13T05:48:36;8.82;;;3.17;;
77099;SDS011;66602;48.922;2.414;2023-03-13T05:51:02;3.65;;;2.53;;
77099;SDS011;66602;48.922;2.414;2023-03-13T05:53:27;4.15;;;2.65;;
77099;SDS011;66602;48.922;2.414;2023-03-13T05:55:53;8.15;;;3.03;;
77099;SDS011;66602;48.922;2.414;2023-03-13T05:58:18;4.88;;;2.90;;
77099;SDS011;66602;48.922;2.414;2023-03-13T06:00:43;2.95;;;2.72;;
77099;SDS011;66602;48.922;2.414;2023-03-13T06:03:09;4.50;;;3.53;;
77099;SDS011;66602;48.922;2.414;2023-03-13T06:05:34;5.28;;;2.95;;
77099;SDS011;66602;48.922;2.414;2023-03-13T06:08:00;7.18;;;2.80;;
77099;SDS011;66602;48.922;2.414;2023-03-13T06:10:27;12.35;;;3.95;;
77099;SDS011;66602;48.922;2.414;2023-03-13T06:12:53;3.03;;;2.83;;
77099;SDS011;66602;48.922;2.414;2023-03-13T06:15:19;5.03;;;3.58;;
77099;SDS011;66602;48.922;2.414;2023-03-13T06:17:45;3.83;;;2.60;;
77099;SDS011;66602;48.922;2.414;2023-03-13T06:20:11;4.45;;;2.67;;
77099;SDS011;66602;48.922;2.414;2023-03-13T06:22:37;6.05;;;4.50;;
77099;SDS011;66602;48.922;2.414;2023-03-13T06:25:02;5.00;;;3.10;;
77099;SDS011;66602;48.922;2.414;2023-03-13T06:27:28;4.60;;;3.35;;
77099;SDS011;66602;48.922;2.414;2023-03-13T06:29:53;6.65;;;3.10;;
77099;SDS011;66602;48.922;2.414;2023-03-13T06:32:19;6.38;;;3.03;;
77099;SDS011;66602;48.922;2.414;2023-03-13T06:34:44;4.90;;;3.00;;
77099;SDS011;66602;48.922;2.414;2023-03-13T06:37:10;5.10;;;2.70;;
77099;SDS011;66602;48.922;2.414;2023-03-13T06:39:36;4.30;;;2.42;;
77099;SDS011;66602;48.922;2.414;2023-03-13T06:42:01;3.20;;;2.90;;
77099;SDS011;66602;48.922;2.414;2023-03-13T06:44:27;4.38;;;2.88;;
77099;SDS011;66602;48.922;2.414;2023-03-13T06:46:54;5.65;;;2.53;;
77099;SDS011;66602;48.922;2.414;2023-03-13T06:49:19;3.28;;;2.97;;
77099;SDS011;66602;48.922;2.414;2023-03-13T06:51:45;2.97;;;2.45;;
77099;SDS011;66602;48.922;2.414;2023-03-13T06:54:10;2.75;;;2.40;;
77099;SDS011;66602;48.922;2.414;2023-03-13T06:56:36;5.45;;;3.00;;
77099;SDS011;66602;48.922;2.414;2023-03-13T06:59:01;4.55;;;3.17;;
77099;SDS011;66602;48.922;2.414;2023-03-13T07:01:27;6.30;;;2.83;;
77099;SDS011;66602;48.922;2.414;2023-03-13T07:03:52;8.75;;;2.50;;
77099;SDS011;66602;48.922;2.414;2023-03-13T07:06:18;3.55;;;3.00;;
77099;SDS011;66602;48.922;2.414;2023-03-13T07:08:43;2.60;;;2.40;;
77099;SDS011;66602;48.922;2.414;2023-03-13T07:11:10;5.13;;;2.60;;
77099;SDS011;66602;48.922;2.414;2023-03-13T07:13:37;3.90;;;2.88;;
77099;SDS011;66602;48.922;2.414;2023-03-13T07:16:04;5.70;;;3.13;;
77099;SDS011;66602;48.922;2.414;2023-03-13T07:18:31;3.10;;;2.90;;
77099;SDS011;66602;48.922;2.414;2023-03-13T07:20:58;4.05;;;2.75;;
77099;SDS011;66602;48.922;2.414;2023-03-13T07:23:25;2.95;;;2.45;;
77099;SDS011;66602;48.922;2.414;2023-03-13T07:25:56;4.95;;;2.60;;
77099;SDS011;66602;48.922;2.414;2023-03-13T07:28:24;6.80;;;2.53;;
77099;SDS011;66602;48.922;2.414;2023-03-13T07:30:50;3.67;;;2.63;;
77099;SDS011;66602;48.922;2.414;2023-03-13T07:33:16;6.18;;;3.05;;
77099;SDS011;66602;48.922;2.414;2023-03-13T07:35:50;2.65;;;2.42;;
77099;SDS011;66602;48.922;2.414;2023-03-13T07:38:17;4.57;;;2.70;;
77099;SDS011;66602;48.922;2.414;2023-03-13T07:40:49;2.83;;;2.67;;
77099;SDS011;66602;48.922;2.414;2023-03-13T07:43:15;6.30;;;3.00;;
77099;SDS011;66602;48.922;2.414;2023-03-13T07:45:54;5.45;;;3.20;;
77099;SDS011;66602;48.922;2.414;2023-03-13T07:48:22;5.00;;;3.00;;
77099;SDS011;66602;48.922;2.414;2023-03-13T07:50:49;4.45;;;2.35;;
77099;SDS011;66602;48.922;2.414;2023-03-13T07:53:15;6.75;;;2.85;;
77099;SDS011;66602;48.922;2.414;2023-03-13T07:58:26;6.30;;;3.00;;
77099;SDS011;66602;48.922;2.414;2023-03-13T08:00:53;3.65;;;2.80;;
77099;SDS011;66602;48.922;2.414;2023-03-13T08:03:19;3.72;;;2.60;;
77099;SDS011;66602;48.922;2.414;2023-03-13T08:05:45;6.85;;;2.45;;
77099;SDS011;66602;48.922;2.414;2023-03-13T08:08:10;3.65;;;3.10;;
77099;SDS011;66602;48.922;2.414;2023-03-13T08:10:36;3.38;;;3.00;;
77099;SDS011;66602;48.922;2.414;2023-03-13T08:13:02;3.22;;;2.45;;
77099;SDS011;66602;48.922;2.414;2023-03-13T08:15:27;4.00;;;2.60;;
77099;SDS011;66602;48.922;2.414;2023-03-13T08:17:53;3.13;;;2.90;;
77099;SDS011;66602;48.922;2.414;2023-03-13T08:20:20;4.00;;;2.60;;
77099;SDS011;66602;48.922;2.414;2023-03-13T11:15:38;5.32;;;1.80;;
77099;SDS011;66602;48.922;2.414;2023-03-13T11:18:10;3.97;;;1.95;;
77099;SDS011;66602;48.922;2.414;2023-03-13T11:20:44;2.22;;;1.98;;
77099;SDS011;66602;48.922;2.414;2023-03-13T11:23:22;3.67;;;1.58;;
77099;SDS011;66602;48.922;2.414;2023-03-13T11:26:20;4.55;;;2.03;;
77099;SDS011;66602;48.922;2.414;2023-03-13T11:34:13;3.58;;;2.10;;
77099;SDS011;66602;48.922;2.414;2023-03-13T11:45:01;7.47;;;2.00;;
77099;SDS011;66602;48.922;2.414;2023-03-13T11:55:44;2.55;;;2.13;;
77099;SDS011;66602;48.922;2.414;2023-03-13T11:58:31;2.38;;;2.15;;
77099;SDS011;66602;48.922;2.414;2023-03-13T12:01:15;1.25;;;1.25;;
77099;SDS011;66602;48.922;2.414;2023-03-13T12:11:30;3.95;;;2.10;;
77099;SDS011;66602;48.922;2.414;2023-03-13T12:14:08;5.82;;;2.63;;
77099;SDS011;66602;48.922;2.414;2023-03-13T12:16:54;3.00;;;1.55;;
77099;SDS011;66602;48.922;2.414;2023-03-13T12:21:56;5.05;;;2.13;;
77099;SDS011;66602;48.922;2.414;2023-03-13T12:27:28;3.08;;;1.88;;
77099;SDS011;66602;48.922;2.414;2023-03-13T12:33:24;4.80;;;2.03;;
77099;SDS011;66602;48.922;2.414;2023-03-13T12:36:50;6.25;;;1.83;;
77099;SDS011;66602;48.922;2.414;2023-03-13T12:38:53;8.23;;;2.50;;
77099;SDS011;66602;48.922;2.414;2023-03-13T12:41:30;7.38;;;2.40;;
77099;SDS011;66602;48.922;2.414;2023-03-13T12:44:00;3.65;;;1.88;;
77099;SDS011;66602;48.922;2.414;2023-03-13T13:00:06;3.70;;;1.90;;
77099;SDS011;66602;48.922;2.414;2023-03-13T13:02:39;6.25;;;2.33;;
77099;SDS011;66602;48.922;2.414;2023-03-13T13:05:05;5.93;;;2.40;;
77099;SDS011;66602;48.922;2.414;2023-03-13T13:07:40;11.20;;;3.15;;
77099;SDS011;66602;48.922;2.414;2023-03-13T13:10:21;10.40;;;2.63;;
77099;SDS011;66602;48.922;2.414;2023-03-13T13:15:37;6.50;;;2.55;;
77099;SDS011;66602;48.922;2.414;2023-03-13T13:18:22;7.45;;;2.13;;
77099;SDS011;66602;48.922;2.414;2023-03-13T13:21:24;10.07;;;2.72;;
77099;SDS011;66602;48.922;2.414;2023-03-13T13:23:44;7.65;;;2.50;;
77099;SDS011;66602;48.922;2.414;2023-03-13T13:28:57;13.75;;;2.60;;
77099;SDS011;66602;48.922;2.414;2023-03-13T13:34:31;6.93;;;2.10;;
77099;SDS011;66602;48.922;2.414;2023-03-13T13:39:52;4.40;;;1.50;;
77099;SDS011;66602;48.922;2.414;2023-03-13T13:45:36;5.38;;;1.85;;
77099;SDS011;66602;48.922;2.414;2023-03-13T13:50:38;5.82;;;1.98;;
77099;SDS011;66602;48.922;2.414;2023-03-13T13:53:53;5.65;;;1.92;;
77099;SDS011;66602;48.922;2.414;2023-03-13T14:01:39;4.18;;;1.70;;
77099;SDS011;66602;48.922;2.414;2023-03-13T14:04:18;5.80;;;2.97;;
77099;SDS011;66602;48.922;2.414;2023-03-13T14:06:53;2.15;;;1.75;;
77099;SDS011;66602;48.922;2.414;2023-03-13T14:12:29;3.33;;;1.80;;
77099;SDS011;66602;48.922;2.414;2023-03-13T14:15:07;1.85;;;1.70;;
77099;SDS011;66602;48.922;2.414;2023-03-13T14:17:51;6.13;;;1.98;;
77099;SDS011;66602;48.922;2.414;2023-03-13T14:20:52;2.90;;;1.35;;
77099;SDS011;66602;48.922;2.414;2023-03-13T14:23:36;2.83;;;1.27;;
77099;SDS011;66602;48.922;2.414;2023-03-13T14:28:55;4.43;;;1.85;;
77099;SDS011;66602;48.922;2.414;2023-03-13T14:33:59;4.65;;;2.10;;
77099;SDS011;66602;48.922;2.414;2023-03-13T14:36:26;6.95;;;1.90;;
77099;SDS011;66602;48.922;2.414;2023-03-13T14:38:53;4.38;;;1.75;;
77099;SDS011;66602;48.922;2.414;2023-03-13T14:41:27;4.75;;;2.10;;
77099;SDS011;66602;48.922;2.414;2023-03-13T14:43:59;3.90;;;1.70;;
77099;SDS011;66602;48.922;2.414;2023-03-13T14:46:31;4.30;;;1.98;;
77099;SDS011;66602;48.922;2.414;2023-03-13T14:49:05;2.83;;;1.65;;
77099;SDS011;66602;48.922;2.414;2023-03-13T14:51:45;3.38;;;1.60;;
77099;SDS011;66602;48.922;2.414;2023-03-13T14:54:31;6.35;;;1.88;;
77099;SDS011;66602;48.922;2.414;2023-03-13T14:57:23;2.80;;;2.05;;
77099;SDS011;66602;48.922;2.414;2023-03-13T14:59:49;2.38;;;1.35;;
77099;SDS011;66602;48.922;2.414;2023-03-13T15:07:24;3.55;;;1.75;;
77099;SDS011;66602;48.922;2.414;2023-03-13T15:09:51;6.55;;;1.73;;
77099;SDS011;66602;48.922;2.414;2023-03-13T15:12:19;2.78;;;1.63;;
77099;SDS011;66602;48.922;2.414;2023-03-13T15:14:48;6.45;;;1.70;;
77099;SDS011;66602;48.922;2.414;2023-03-13T15:17:22;4.90;;;1.83;;
77099;SDS011;66602;48.922;2.414;2023-03-13T15:19:56;4.20;;;2.08;;
77099;SDS011;66602;48.922;2.414;2023-03-13T15:22:36;5.30;;;1.80;;
77099;SDS011;66602;48.922;2.414;2023-03-13T15:25:14;3.75;;;1.60;;
77099;SDS011;66602;48.922;2.414;2023-03-13T15:27:42;2.50;;;1.55;;
77099;SDS011;66602;48.922;2.414;2023-03-13T15:30:07;2.72;;;1.38;;
77099;SDS011;66602;48.922;2.414;2023-03-13T15:32:36;2.83;;;1.40;;
77099;SDS011;66602;48.922;2.414;2023-03-13T15:37:58;2.15;;;1.50;;
77099;SDS011;66602;48.922;2.414;2023-03-13T15:40:26;6.05;;;2.95;;
77099;SDS011;66602;48.922;2.414;2023-03-13T15:42:52;4.55;;;1.70;;
77099;SDS011;66602;48.922;2.414;2023-03-13T15:45:19;2.60;;;1.60;;
77099;SDS011;66602;48.922;2.414;2023-03-13T15:47:44;2.45;;;1.60;;
77099;SDS011;66602;48.922;2.414;2023-03-13T15:50:12;5.13;;;1.80;;
77099;SDS011;66602;48.922;2.414;2023-03-13T15:52:39;2.03;;;1.85;;
77099;SDS011;66602;48.922;2.414;2023-03-13T15:55:04;2.00;;;1.38;;
77099;SDS011;66602;48.922;2.414;2023-03-13T15:57:34;5.47;;;1.77;;
77099;SDS011;66602;48.922;2.414;2023-03-13T16:00:02;6.15;;;1.45;;
77099;SDS011;66602;48.922;2.414;2023-03-13T16:02:30;2.10;;;1.52;;
77099;SDS011;66602;48.922;2.414;2023-03-13T16:04:56;2.08;;;1.40;;
77099;SDS011;66602;48.922;2.414;2023-03-13T16:07:22;3.88;;;1.55;;
77099;SDS011;66602;48.922;2.414;2023-03-13T16:09:48;2.42;;;1.50;;
77099;SDS011;66602;48.922;2.414;2023-03-13T16:12:13;2.70;;;1.30;;
77099;SDS011;66602;48.922;2.414;2023-03-13T16:14:39;5.18;;;1.60;;
77099;SDS011;66602;48.922;2.414;2023-03-13T16:17:10;1.95;;;1.20;;
77099;SDS011;66602;48.922;2.414;2023-03-13T16:19:39;3.55;;;1.10;;
77099;SDS011;66602;48.922;2.414;2023-03-13T16:22:04;2.10;;;1.63;;
77099;SDS011;66602;48.922;2.414;2023-03-13T16:24:30;2.00;;;1.55;;
77099;SDS011;66602;48.922;2.414;2023-03-13T16:26:55;3.47;;;1.80;;
77099;SDS011;66602;48.922;2.414;2023-03-13T16:29:21;2.50;;;1.25;;
77099;SDS011;66602;48.922;2.414;2023-03-13T16:31:46;2.47;;;1.75;;
77099;SDS011;66602;48.922;2.414;2023-03-13T16:34:11;3.38;;;1.40;;
77099;SDS011;66602;48.922;2.414;2023-03-13T16:36:37;1.55;;;1.42;;
77099;SDS011;66602;48.922;2.414;2023-03-13T16:39:06;3.20;;;1.20;;
77099;SDS011;66602;48.922;2.414;2023-03-13T16:41:35;1.70;;;1.40;;
77099;SDS011;66602;48.922;2.414;2023-03-13T16:44:00;1.80;;;1.33;;
77099;SDS011;66602;48.922;2.414;2023-03-13T16:46:31;2.35;;;1.60;;
77099;SDS011;66602;48.922;2.414;2023-03-13T16:49:00;3.83;;;1.50;;
77099;SDS011;66602;48.922;2.414;2023-03-13T16:51:26;1.85;;;1.75;;
77099;SDS011;66602;48.922;2.414;2023-03-13T16:53:53;2.47;;;2.15;;
77099;SDS011;66602;48.922;2.414;2023-03-13T16:56:33;2.22;;;1.27;;
77099;SDS011;66602;48.922;2.414;2023-03-13T16:59:08;2.28;;;2.08;;
77099;SDS011;66602;48.922;2.414;2023-03-13T17:01:35;2.70;;;1.87;;
77099;SDS011;66602;48.922;2.414;2023-03-13T17:04:01;2.33;;;1.83;;
77099;SDS011;66602;48.922;2.414;2023-03-13T17:06:27;5.03;;;2.35;;
77099;SDS011;66602;48.922;2.414;2023-03-13T17:08:56;4.63;;;1.40;;
77099;SDS011;66602;48.922;2.414;2023-03-13T17:11:22;3.13;;;1.77;;
77099;SDS011;66602;48.922;2.414;2023-03-13T17:13:49;3.40;;;2.05;;
77099;SDS011;66602;48.922;2.414;2023-03-13T17:16:17;5.15;;;1.80;;
77099;SDS011;66602;48.922;2.414;2023-03-13T17:18:48;4.70;;;1.92;;
77099;SDS011;66602;48.922;2.414;2023-03-13T17:21:20;2.22;;;1.67;;
77099;SDS011;66602;48.922;2.414;2023-03-13T17:23:48;2.42;;;1.35;;
77099;SDS011;66602;48.922;2.414;2023-03-13T17:28:42;4.50;;;1.85;;
77099;SDS011;66602;48.922;2.414;2023-03-13T17:31:09;1.30;;;1.30;;
77099;SDS011;66602;48.922;2.414;2023-03-13T17:33:35;1.80;;;1.65;;
77099;SDS011;66602;48.922;2.414;2023-03-13T17:36:01;3.40;;;1.52;;
77099;SDS011;66602;48.922;2.414;2023-03-13T17:38:30;5.20;;;1.73;;
77099;SDS011;66602;48.922;2.414;2023-03-13T17:40:55;4.40;;;1.52;;
77099;SDS011;66602;48.922;2.414;2023-03-13T17:43:21;3.65;;;1.67;;
77099;SDS011;66602;48.922;2.414;2023-03-13T17:45:46;8.55;;;2.03;;
77099;SDS011;66602;48.922;2.414;2023-03-13T17:48:21;3.38;;;1.75;;
77099;SDS011;66602;48.922;2.414;2023-03-13T17:50:46;2.85;;;1.45;;
77099;SDS011;66602;48.922;2.414;2023-03-13T17:53:12;2.63;;;1.63;;
77099;SDS011;66602;48.922;2.414;2023-03-13T17:55:37;5.80;;;1.98;;
77099;SDS011;66602;48.922;2.414;2023-03-13T17:58:03;2.60;;;2.17;;
77099;SDS011;66602;48.922;2.414;2023-03-13T18:00:29;7.97;;;3.08;;
77099;SDS011;66602;48.922;2.414;2023-03-13T18:02:56;5.03;;;2.00;;
77099;SDS011;66602;48.922;2.414;2023-03-13T18:05:23;4.30;;;1.92;;
77099;SDS011;66602;48.922;2.414;2023-03-13T18:07:48;8.20;;;2.22;;
77099;SDS011;66602;48.922;2.414;2023-03-13T18:10:15;6.15;;;2.22;;
77099;SDS011;66602;48.922;2.414;2023-03-13T18:12:45;3.33;;;2.17;;
77099;SDS011;66602;48.922;2.414;2023-03-13T18:15:11;7.68;;;1.85;;
77099;SDS011;66602;48.922;2.414;2023-03-13T18:17:36;4.18;;;1.90;;
77099;SDS011;66602;48.922;2.414;2023-03-13T18:20:02;6.78;;;2.22;;
77099;SDS011;66602;48.922;2.414;2023-03-13T18:22:29;5.00;;;2.20;;
77099;SDS011;66602;48.922;2.414;2023-03-13T18:24:55;3.08;;;1.98;;
77099;SDS011;66602;48.922;2.414;2023-03-13T18:27:20;7.53;;;2.08;;
77099;SDS011;66602;48.922;2.414;2023-03-13T18:29:46;5.50;;;2.40;;
77099;SDS011;66602;48.922;2.414;2023-03-13T18:32:14;6.20;;;1.90;;
77099;SDS011;66602;48.922;2.414;2023-03-13T18:34:41;4.22;;;2.00;;
77099;SDS011;66602;48.922;2.414;2023-03-13T18:39:52;4.10;;;2.35;;
77099;SDS011;66602;48.922;2.414;2023-03-13T18:42:20;7.93;;;1.83;;
77099;SDS011;66602;48.922;2.414;2023-03-13T18:44:45;9.13;;;2.95;;
77099;SDS011;66602;48.922;2.414;2023-03-13T18:47:12;5.45;;;2.35;;
77099;SDS011;66602;48.922;2.414;2023-03-13T18:49:39;6.22;;;2.83;;
77099;SDS011;66602;48.922;2.414;2023-03-13T18:52:05;8.50;;;2.20;;
77099;SDS011;66602;48.922;2.414;2023-03-13T18:54:31;3.85;;;2.53;;
77099;SDS011;66602;48.922;2.414;2023-03-13T18:56:56;12.43;;;3.60;;
77099;SDS011;66602;48.922;2.414;2023-03-13T18:59:22;6.32;;;2.65;;
77099;SDS011;66602;48.922;2.414;2023-03-13T19:01:47;13.85;;;4.68;;
77099;SDS011;66602;48.922;2.414;2023-03-13T19:04:26;12.80;;;3.40;;
77099;SDS011;66602;48.922;2.414;2023-03-13T19:06:55;3.72;;;2.40;;
77099;SDS011;66602;48.922;2.414;2023-03-13T19:09:21;9.35;;;2.50;;
77099;SDS011;66602;48.922;2.414;2023-03-13T19:11:47;9.10;;;2.50;;
77099;SDS011;66602;48.922;2.414;2023-03-13T19:14:13;14.32;;;2.58;;
77099;SDS011;66602;48.922;2.414;2023-03-13T19:16:41;8.82;;;2.40;;
77099;SDS011;66602;48.922;2.414;2023-03-13T19:19:13;7.03;;;2.13;;
77099;SDS011;66602;48.922;2.414;2023-03-13T19:21:41;13.13;;;3.10;;
77099;SDS011;66602;48.922;2.414;2023-03-13T19:24:07;9.00;;;2.53;;
77099;SDS011;66602;48.922;2.414;2023-03-13T19:26:38;7.22;;;2.92;;
77099;SDS011;66602;48.922;2.414;2023-03-13T19:29:12;5.30;;;3.35;;
77099;SDS011;66602;48.922;2.414;2023-03-13T19:31:42;5.95;;;2.63;;